Time;durP1;ratioP1;P1;durP2;ratioP2;P2;SDS_P1;SDS_P2;PMS_P1;PMS_P2;Temp;Humidity;BMP_temperature;BMP_pressure;BME280_temperature;BME280_humidity;BME280_pressure;Samples;Min_cycle;Max_cycle;Signal;HPM_P1;HPM_P2
2023/03/07 00:01:47;;;;;;;3.00;2.13;;;;;;;2.84;45.89;98038.34;5044434;28;20046;-64
2023/03/07 00:04:13;;;;;;;5.70;2.60;;;;;;;2.82;45.89;98046.38;5044346;28;20048;-63
2023/03/07 00:06:39;;;;;;;2.77;1.97;;;;;;;2.96;45.93;98039.78;5077603;28;20442;-64
2023/03/07 00:09:05;;;;;;;3.13;1.80;;;;;;;2.95;45.87;98040.78;5027883;28;20156;-64
2023/03/07 00:11:30;;;;;;;3.33;2.20;;;;;;;2.89;46.00;98042.16;5060840;28;20044;-64
2023/03/07 00:13:58;;;;;;;4.00;2.30;;;;;;;2.93;46.03;98032.22;5044508;28;20051;-67
2023/03/07 00:16:24;;;;;;;2.10;1.80;;;;;;;2.99;45.71;98034.25;5044709;28;20483;-64
2023/03/07 00:18:52;;;;;;;2.37;1.90;;;;;;;3.16;46.01;98036.88;5027781;28;20539;-65
2023/03/07 00:21:20;;;;;;;5.20;2.30;;;;;;;3.33;45.90;98043.06;5027473;28;20395;-64
2023/03/07 00:23:46;;;;;;;4.13;1.70;;;;;;;2.98;45.79;98036.03;5077158;28;20055;-64
2023/03/07 00:26:15;;;;;;;2.87;1.90;;;;;;;3.37;45.66;98029.50;5094214;28;20039;-64
2023/03/07 00:28:45;;;;;;;2.83;1.83;;;;;;;3.42;45.80;98034.28;5060863;28;20047;-65
2023/03/07 00:31:11;;;;;;;3.50;2.10;;;;;;;3.17;45.24;98033.25;5060512;28;20044;-64
2023/03/07 00:33:37;;;;;;;2.27;1.80;;;;;;;3.04;45.51;98027.59;5060524;28;20044;-64
2023/03/07 00:36:07;;;;;;;2.53;1.80;;;;;;;3.08;46.04;98025.47;5043566;28;20052;-64
2023/03/07 00:38:33;;;;;;;2.75;2.00;;;;;;;2.90;46.06;98020.25;5058190;28;20395;-64
2023/03/07 00:41:05;;;;;;;4.20;1.90;;;;;;;3.06;46.15;98025.63;5041747;28;20052;-64
2023/03/07 00:43:30;;;;;;;;;;;;;;;3.42;45.65;98029.88;5058785;28;20172;-64
2023/03/07 00:45:56;;;;;;;2.23;1.57;;;;;;;2.84;45.73;98023.47;5025401;28;20026;-64
2023/03/07 00:48:22;;;;;;;3.57;1.90;;;;;;;2.86;46.14;98025.94;5041450;28;20040;-64
2023/03/07 00:50:51;;;;;;;3.33;1.90;;;;;;;2.80;46.29;98029.13;5041652;28;20032;-64
2023/03/07 00:53:17;;;;;;;1.80;1.70;;;;;;;2.65;46.42;98015.72;5043904;28;20040;-64
2023/03/07 00:55:58;;;;;;;2.83;1.80;;;;;;;2.94;46.87;98020.75;5043283;28;20055;-63
2023/03/07 00:58:26;;;;;;;3.57;1.63;;;;;;;2.79;46.74;98009.13;5076897;28;20052;-62
2023/03/07 01:00:52;;;;;;;1.97;1.60;;;;;;;2.49;46.71;98012.91;5043201;28;20051;-63
2023/03/07 01:03:19;;;;;;;1.50;1.40;;;;;;;2.66;46.83;98012.13;5043536;28;20047;-63
2023/03/07 01:05:46;;;;;;;3.07;1.90;;;;;;;2.55;46.88;98019.38;5093572;28;20044;-62
2023/03/07 01:08:12;;;;;;;4.10;1.73;;;;;;;2.54;46.50;98002.81;5059660;28;20044;-63
2023/03/07 01:10:39;;;;;;;2.87;1.70;;;;;;;2.65;46.54;98026.22;5060168;28;20423;-63
2023/03/07 01:13:05;;;;;;;3.27;1.77;;;;;;;2.57;46.89;98015.63;5059550;28;20039;-63
2023/03/07 01:15:31;;;;;;;6.47;1.80;;;;;;;2.55;47.02;98017.56;5043435;28;20044;-65
2023/03/07 01:17:57;;;;;;;3.57;2.03;;;;;;;2.28;47.14;98014.13;5060231;28;20108;-63
2023/03/07 01:20:23;;;;;;;2.83;1.80;;;;;;;2.40;47.45;98032.13;5059764;28;20090;-63
2023/03/07 01:22:49;;;;;;;2.57;1.93;;;;;;;2.16;47.55;98029.25;5076048;28;20040;-64
2023/03/07 01:25:15;;;;;;;3.13;2.13;;;;;;;2.28;47.53;98030.69;5042814;28;20451;-64
2023/03/07 01:27:41;;;;;;;2.10;1.80;;;;;;;2.27;47.56;98031.66;5076162;28;20050;-62
2023/03/07 01:30:08;;;;;;;4.30;1.90;;;;;;;2.28;48.21;98032.47;5025487;28;20383;-65
2023/03/07 01:32:36;;;;;;;3.47;2.07;;;;;;;2.17;48.20;98016.97;5059762;28;20625;-64
2023/03/07 01:35:02;;;;;;;2.90;1.70;;;;;;;2.00;48.90;98028.22;5026656;28;20151;-64
2023/03/07 01:37:29;;;;;;;1.83;1.70;;;;;;;1.92;48.81;98022.88;5043416;28;20067;-62
2023/03/07 01:39:56;;;;;;;3.73;1.90;;;;;;;1.86;49.30;98029.47;5042289;28;20089;-63
2023/03/07 01:42:22;;;;;;;3.90;1.80;;;;;;;1.91;49.57;98019.41;5026214;28;20050;-64
2023/03/07 01:45:35;;;;;;;4.50;2.03;;;;;;;2.33;50.33;98035.50;5043856;28;20047;-63
2023/03/07 01:48:02;;;;;;;2.93;2.00;;;;;;;1.95;49.78;98030.44;5013195;28;20438;-65
2023/03/07 01:50:29;;;;;;;3.37;2.10;;;;;;;1.95;49.82;98027.81;5026952;28;20050;-61
2023/03/07 01:52:57;;;;;;;2.73;2.07;;;;;;;2.21;49.84;98019.16;5042650;28;20039;-64
2023/03/07 01:55:32;;;;;;;4.10;2.13;;;;;;;2.12;50.12;98032.28;5042489;28;20039;-64
2023/03/07 01:58:08;;;;;;;5.23;2.40;;;;;;;2.09;50.25;98028.16;5043210;28;20059;-64
2023/03/07 02:00:37;;;;;;;2.72;2.15;;;;;;;1.79;50.12;98038.88;5057989;28;20051;-64
2023/03/07 02:03:13;;;;;;;4.97;2.50;;;;;;;2.30;50.69;98041.84;5058649;28;20126;-65
2023/03/07 02:05:52;;;;;;;3.43;2.23;;;;;;;2.25;50.53;98036.22;5058193;28;20438;-64
2023/03/07 02:08:20;;;;;;;5.07;2.00;;;;;;;2.15;50.38;98032.00;5057510;28;20048;-64
2023/03/07 02:10:47;;;;;;;3.33;2.00;;;;;;;2.13;50.27;98032.16;5026122;28;20051;-62
2023/03/07 02:13:13;;;;;;;3.53;2.10;;;;;;;1.94;50.09;98031.41;5042512;28;20105;-61
2023/03/07 02:15:40;;;;;;;3.17;2.00;;;;;;;1.89;50.12;98039.69;5025475;28;20105;-62
2023/03/07 02:18:06;;;;;;;2.87;2.20;;;;;;;2.13;49.91;98047.03;5025941;28;20039;-64
2023/03/07 02:20:51;;;;;;;3.57;2.00;;;;;;;2.37;50.20;98042.09;5059000;28;20120;-63
2023/03/07 02:23:49;;;;;;;4.70;2.20;;;;;;;2.34;50.08;98045.81;5042540;28;20055;-64
2023/03/07 02:26:27;;;;;;;8.27;2.40;;;;;;;2.34;50.37;98031.91;5058685;28;20511;-64
2023/03/07 02:28:53;;;;;;;2.87;2.10;;;;;;;2.04;49.97;98027.78;5041421;28;20465;-63
2023/03/07 02:31:19;;;;;;;4.60;2.43;;;;;;;2.05;50.11;98034.66;5024094;28;20031;-64
2023/03/07 02:33:48;;;;;;;2.60;2.17;;;;;;;2.19;50.64;98030.72;5041389;28;20043;-63
2023/03/07 02:36:27;;;;;;;7.10;3.20;;;;;;;2.21;50.43;98024.41;5075068;28;20140;-64
2023/03/07 02:39:05;;;;;;;8.27;3.30;;;;;;;2.09;50.35;98033.38;5028190;28;20044;-64
2023/03/07 02:41:33;;;;;;;3.23;2.50;;;;;;;2.10;50.83;98031.59;5059318;28;20555;-63
2023/03/07 02:44:05;;;;;;;4.10;2.70;;;;;;;2.03;50.23;98028.72;5059085;28;20047;-66
2023/03/07 02:46:31;;;;;;;3.67;2.30;;;;;;;2.00;50.04;98029.03;5025647;28;20515;-62
2023/03/07 02:48:57;;;;;;;3.97;2.27;;;;;;;1.95;50.07;98031.25;5058240;28;20101;-61
2023/03/07 02:51:22;;;;;;;4.97;2.60;;;;;;;1.93;50.28;98027.13;5041754;28;20094;-62
2023/03/07 02:53:48;;;;;;;5.63;2.47;;;;;;;1.82;50.24;98038.59;5041625;28;20134;-60
2023/03/07 02:56:14;;;;;;;3.83;2.30;;;;;;;1.76;50.45;98023.47;5025158;28;20494;-61
2023/03/07 02:58:40;;;;;;;4.60;2.07;;;;;;;1.86;50.50;98029.47;5057990;28;20062;-58
2023/03/07 03:01:06;;;;;;;3.30;2.30;;;;;;;1.89;50.52;98031.84;5058201;28;20067;-62
2023/03/07 03:03:32;;;;;;;4.17;2.17;;;;;;;2.00;50.14;98034.25;5058405;28;20074;-61
2023/03/07 03:05:57;;;;;;;7.50;2.43;;;;;;;1.88;50.36;98037.22;5058419;28;20056;-60
2023/03/07 03:08:23;;;;;;;4.63;2.40;;;;;;;1.87;50.52;98033.75;5041450;28;20474;-63
2023/03/07 03:10:53;;;;;;;3.93;1.83;;;;;;;2.09;51.13;98016.88;5041188;28;20046;-56
2023/03/07 03:13:21;;;;;;;6.87;2.50;;;;;;;1.73;50.96;98016.72;5058160;28;20067;-60
2023/03/07 03:15:47;;;;;;;4.60;2.27;;;;;;;1.71;50.96;98023.91;5024807;28;20474;-60
2023/03/07 03:18:13;;;;;;;5.80;2.53;;;;;;;1.82;50.98;98022.88;5074617;28;20079;-62
2023/03/07 03:20:41;;;;;;;7.37;2.47;;;;;;;1.92;51.18;98033.34;5040129;28;20046;-61
2023/03/07 03:23:07;;;;;;;4.73;2.13;;;;;;;1.66;51.23;98030.53;5040985;28;20043;-71
2023/03/07 03:25:34;;;;;;;5.13;2.27;;;;;;;1.84;50.97;98044.53;5057837;28;20052;-66
2023/03/07 03:28:01;;;;;;;4.77;2.30;;;;;;;1.79;51.38;98025.78;5040996;28;20044;-65
2023/03/07 03:30:31;;;;;;;4.60;2.40;;;;;;;1.69;51.30;98041.50;5040821;28;20090;-65
2023/03/07 03:32:58;;;;;;;4.82;2.47;;;;;;;1.77;51.29;98033.78;5041426;28;20046;-66
2023/03/07 03:35:25;;;;;;;5.27;2.70;;;;;;;1.72;51.03;98036.00;5024358;28;20052;-65
2023/03/07 03:37:53;;;;;;;3.33;2.70;;;;;;;1.67;51.19;98040.03;5036030;28;20043;-65
2023/03/07 03:40:19;;;;;;;6.03;2.80;;;;;;;1.62;51.45;98035.22;5040500;28;20052;-65
2023/03/07 03:42:45;;;;;;;5.47;2.73;;;;;;;1.65;51.37;98034.94;5024140;28;20044;-65
2023/03/07 03:45:16;;;;;;;5.50;2.70;;;;;;;1.71;51.18;98038.75;5024420;28;20044;-65
2023/03/07 03:47:42;;;;;;;7.83;3.37;;;;;;;1.59;51.40;98043.34;5057444;28;20173;-64
2023/03/07 03:50:09;;;;;;;4.93;2.70;;;;;;;1.81;51.48;98052.66;5039747;28;20423;-72
2023/03/07 03:52:36;;;;;;;9.97;3.53;;;;;;;1.63;51.28;98041.25;5040252;28;20040;-64
2023/03/07 03:55:03;;;;;;;4.07;2.83;;;;;;;1.62;51.55;98045.69;5057031;28;20039;-65
2023/03/07 03:57:29;;;;;;;10.63;4.03;;;;;;;1.45;51.58;98048.19;5072653;28;20074;-65
2023/03/07 03:59:54;;;;;;;6.10;3.40;;;;;;;1.41;52.00;98055.50;5023425;28;20087;-65
2023/03/07 04:02:21;;;;;;;9.70;3.50;;;;;;;1.43;52.06;98052.75;5056812;28;20400;-65
2023/03/07 04:04:47;;;;;;;6.80;3.50;;;;;;;1.34;52.10;98051.78;5057142;28;20044;-64
2023/03/07 04:07:13;;;;;;;6.60;3.80;;;;;;;1.42;52.51;98049.28;5023917;28;20052;-65
2023/03/07 04:09:39;;;;;;;6.50;3.03;;;;;;;1.34;52.08;98045.72;5040583;28;20410;-72
2023/03/07 04:12:05;;;;;;;8.67;3.27;;;;;;;1.42;52.50;98053.69;5040482;28;20048;-64
2023/03/07 04:14:31;;;;;;;6.93;3.33;;;;;;;1.28;52.26;98034.03;5024009;28;20056;-64
2023/03/07 04:16:57;;;;;;;6.33;3.10;;;;;;;1.45;52.29;98059.47;5023867;28;20043;-64
2023/03/07 04:19:23;;;;;;;6.17;2.93;;;;;;;1.36;52.35;98052.47;5023870;28;20047;-64
2023/03/07 04:21:50;;;;;;;6.43;3.27;;;;;;;1.51;52.44;98051.06;5040484;28;20065;-64
2023/03/07 04:24:16;;;;;;;5.93;3.20;;;;;;;1.48;51.98;98047.91;5040187;28;20087;-64
2023/03/07 04:26:43;;;;;;;4.87;3.27;;;;;;;1.51;52.03;98050.22;5023740;28;20063;-66
2023/03/07 04:29:09;;;;;;;5.20;2.97;;;;;;;1.55;51.85;98055.03;5057080;28;20063;-64
2023/03/07 04:31:43;;;;;;;7.73;3.17;;;;;;;1.53;51.87;98061.38;5044130;28;20100;-64
2023/03/07 04:34:12;;;;;;;4.47;3.17;;;;;;;1.54;51.86;98066.47;5060843;28;20135;-64
2023/03/07 04:36:39;;;;;;;4.37;2.63;;;;;;;1.43;51.94;98068.44;5044523;28;20131;-64
2023/03/07 04:39:05;;;;;;;10.30;3.57;;;;;;;1.50;52.09;98061.66;5027386;28;20449;-68
2023/03/07 04:41:31;;;;;;;5.40;3.40;;;;;;;1.45;52.11;98064.72;5027134;28;20820;-64
2023/03/07 04:44:17;;;;;;;6.63;3.77;;;;;;;1.54;51.86;98065.63;5062233;28;20445;-64
2023/03/07 04:46:43;;;;;;;7.83;3.53;;;;;;;1.55;51.82;98075.97;5043452;28;20142;-65
2023/03/07 04:49:09;;;;;;;8.37;3.70;;;;;;;1.54;51.96;98073.50;5027467;28;20048;-64
2023/03/07 04:51:35;;;;;;;6.07;3.53;;;;;;;1.56;51.83;98072.41;5060432;28;20044;-64
2023/03/07 04:54:01;;;;;;;6.27;3.20;;;;;;;1.59;51.64;98077.34;5026827;28;20055;-64
2023/03/07 04:56:27;;;;;;;8.60;4.60;;;;;;;1.59;51.65;98064.28;5027006;28;20044;-64
2023/03/07 04:58:53;;;;;;;10.97;5.30;;;;;;;1.56;51.90;98077.63;5043501;28;20074;-64
2023/03/07 05:01:19;;;;;;;11.53;4.60;;;;;;;1.50;51.56;98078.19;5043171;28;20048;-64
2023/03/07 05:03:46;;;;;;;9.57;4.87;;;;;;;1.53;51.88;98075.31;5043145;28;20036;-64
2023/03/07 05:06:14;;;;;;;7.83;4.30;;;;;;;1.78;51.95;98073.88;5043681;28;20131;-65
2023/03/07 05:08:42;;;;;;;9.80;4.97;;;;;;;1.60;51.41;98079.00;5060470;28;20460;-64
2023/03/07 05:11:08;;;;;;;9.10;4.70;;;;;;;1.54;51.59;98078.72;5043475;28;20059;-65
2023/03/07 05:13:34;;;;;;;10.73;5.20;;;;;;;1.64;51.66;98084.78;5043159;28;20056;-64
2023/03/07 05:16:01;;;;;;;10.93;4.70;;;;;;;1.75;51.24;98098.53;5042090;28;20514;-64
2023/03/07 05:18:28;;;;;;;9.10;5.30;;;;;;;1.85;51.30;98090.66;5043040;28;20052;-64
2023/03/07 05:20:55;;;;;;;9.57;4.53;;;;;;;1.88;51.01;98092.19;5027089;28;20129;-64
2023/03/07 05:23:22;;;;;;;6.77;4.13;;;;;;;1.89;50.98;98099.91;5042928;28;20032;-63
2023/03/07 05:25:49;;;;;;;15.13;4.30;;;;;;;1.95;50.91;98104.56;5026802;28;20054;-63
2023/03/07 05:28:15;;;;;;;8.60;4.83;;;;;;;2.06;50.77;98096.50;5042799;28;20058;-65
2023/03/07 05:30:45;;;;;;;6.70;4.43;;;;;;;2.06;50.57;98104.38;5059864;28;20117;-64
2023/03/07 05:33:11;;;;;;;6.63;3.80;;;;;;;2.13;50.31;98102.84;5076402;28;20105;-64
2023/03/07 05:35:38;;;;;;;7.03;3.97;;;;;;;2.06;50.25;98103.56;5076048;28;20040;-63
2023/03/07 05:38:05;;;;;;;8.63;4.00;;;;;;;2.26;50.03;98110.38;5048140;28;20072;-64
2023/03/07 05:40:32;;;;;;;10.90;4.33;;;;;;;2.33;49.67;98122.75;5035408;28;20059;-64
2023/03/07 05:42:59;;;;;;;5.87;3.20;;;;;;;2.47;49.43;98111.81;5058311;28;20101;-64
2023/03/07 05:45:25;;;;;;;8.27;4.03;;;;;;;2.45;49.18;98120.78;5026401;28;20101;-64
2023/03/07 05:47:51;;;;;;;8.27;3.67;;;;;;;2.51;48.85;98122.81;5059439;28;20115;-65
2023/03/07 05:50:19;;;;;;;5.50;3.27;;;;;;;2.50;48.98;98123.78;5059466;28;20052;-64
2023/03/07 05:52:45;;;;;;;7.67;3.50;;;;;;;2.51;48.84;98121.03;5059398;28;20132;-71
2023/03/07 05:55:11;;;;;;;6.97;3.47;;;;;;;2.43;48.90;98115.69;5026292;28;20050;-64
2023/03/07 05:57:38;;;;;;;7.97;4.30;;;;;;;2.43;48.76;98123.53;5043049;28;20048;-65
2023/03/07 06:00:05;;;;;;;6.60;3.93;;;;;;;2.67;48.62;98113.38;5042277;28;20499;-64
2023/03/07 06:02:41;;;;;;;8.00;3.90;;;;;;;2.70;48.45;98126.19;5075424;28;20066;-65
2023/03/07 06:05:09;;;;;;;9.77;4.00;;;;;;;2.75;48.07;98131.78;5042958;28;20050;-64
2023/03/07 06:07:37;;;;;;;7.77;4.03;;;;;;;3.04;48.31;98123.78;5059301;28;20044;-64
2023/03/07 06:10:12;;;;;;;6.03;3.80;;;;;;;3.20;47.96;98121.31;5025861;28;20078;-64
2023/03/07 06:12:40;;;;;;;6.50;3.67;;;;;;;2.96;47.58;98106.16;5058786;28;20052;-64
2023/03/07 06:15:07;;;;;;;6.67;3.13;;;;;;;3.00;47.35;98115.38;5042008;28;20046;-64
2023/03/07 06:17:34;;;;;;;11.33;3.77;;;;;;;3.18;46.91;98113.59;5042153;28;20468;-66
2023/03/07 06:20:00;;;;;;;8.97;3.63;;;;;;;3.19;46.73;98115.25;5041852;28;20560;-65
2023/03/07 06:22:26;;;;;;;10.90;3.67;;;;;;;3.30;46.31;98116.84;5058246;28;20409;-64
2023/03/07 06:24:53;;;;;;;5.97;3.50;;;;;;;3.44;45.90;98137.31;5058368;28;20073;-65
2023/03/07 06:27:20;;;;;;;6.33;3.63;;;;;;;3.93;44.99;98120.13;5036016;28;20139;-64
2023/03/07 06:29:46;;;;;;;5.70;3.50;;;;;;;4.16;44.21;98119.50;5058840;28;20150;-65
2023/03/07 06:32:15;;;;;;;5.77;2.93;;;;;;;4.25;43.52;98121.19;5043468;28;20040;-64
2023/03/07 06:34:42;;;;;;;5.50;3.03;;;;;;;4.60;43.52;98125.47;5041711;28;20044;-64
2023/03/07 06:37:09;;;;;;;7.57;3.40;;;;;;;4.42;43.24;98135.22;5058631;28;20083;-65
2023/03/07 06:39:35;;;;;;;9.13;3.33;;;;;;;4.55;43.04;98130.38;5041779;28;20102;-65
2023/03/07 06:42:01;;;;;;;7.93;3.40;;;;;;;4.67;42.93;98129.97;5025326;28;20082;-65
2023/03/07 06:44:27;;;;;;;11.63;3.90;;;;;;;4.71;42.96;98130.44;5036512;28;20084;-65
2023/03/07 06:46:53;;;;;;;6.77;3.40;;;;;;;4.52;42.54;98151.72;5024974;28;20077;-66
2023/03/07 06:49:20;;;;;;;10.23;3.77;;;;;;;4.47;42.41;98146.09;5041580;28;20373;-64
2023/03/07 06:51:47;;;;;;;5.23;3.27;;;;;;;4.19;43.02;98147.25;5058445;28;20051;-64
2023/03/07 06:54:14;;;;;;;7.40;3.77;;;;;;;4.44;42.75;98144.63;5041939;28;20476;-65
2023/03/07 06:56:40;;;;;;;9.60;4.20;;;;;;;4.72;42.69;98147.88;5041507;28;20048;-64
2023/03/07 06:59:06;;;;;;;5.90;3.57;;;;;;;4.56;42.61;98148.63;5024793;28;20048;-64
2023/03/07 07:01:34;;;;;;;6.47;3.63;;;;;;;4.88;42.40;98140.03;5058093;28;20261;-64
2023/03/07 07:04:00;;;;;;;8.03;3.30;;;;;;;4.44;42.49;98149.88;5041061;28;20142;-66
2023/03/07 07:06:27;;;;;;;4.20;2.97;;;;;;;4.80;42.27;98154.00;5025536;28;20442;-64
2023/03/07 07:08:55;;;;;;;8.10;3.80;;;;;;;4.85;41.63;98169.28;5041170;28;20168;-65
2023/03/07 07:11:22;;;;;;;7.27;3.83;;;;;;;4.93;42.06;98158.81;5057941;28;20496;-66
2023/03/07 07:13:49;;;;;;;10.80;3.97;;;;;;;4.69;41.77;98150.84;5024820;28;20044;-62
2023/03/07 07:16:18;;;;;;;8.17;3.57;;;;;;;4.65;41.94;98160.84;5058689;28;20475;-64
2023/03/07 07:18:44;;;;;;;12.23;3.57;;;;;;;4.95;41.87;98164.75;5040961;28;20126;-62
2023/03/07 07:21:10;;;;;;;7.63;3.67;;;;;;;5.22;41.49;98156.59;5057698;28;20046;-66
2023/03/07 07:23:37;;;;;;;8.30;3.33;;;;;;;5.35;40.72;98167.47;5040897;28;20495;-65
2023/03/07 07:26:04;;;;;;;8.80;3.50;;;;;;;5.40;40.63;98167.03;5025101;28;20101;-65
2023/03/07 07:28:30;;;;;;;7.57;3.87;;;;;;;5.57;40.56;98169.50;5024943;28;20043;-65
2023/03/07 07:30:56;;;;;;;6.27;3.33;;;;;;;5.14;40.60;98175.84;5074039;28;20047;-65
2023/03/07 07:33:23;;;;;;;6.17;3.27;;;;;;;4.83;41.30;98176.50;5041324;28;20509;-66
2023/03/07 07:35:50;;;;;;;7.60;3.37;;;;;;;4.78;41.78;98158.56;5041052;28;20492;-65
2023/03/07 07:38:18;;;;;;;9.67;3.90;;;;;;;5.16;41.55;98165.97;5014984;28;20139;-66
2023/03/07 07:40:44;;;;;;;6.53;3.43;;;;;;;4.15;42.84;98170.38;5072727;28;20139;-66
2023/03/07 07:43:14;;;;;;;7.93;4.20;;;;;;;4.45;42.98;98164.66;5084884;28;20043;-66
2023/03/07 07:45:45;;;;;;;7.43;3.50;;;;;;;4.66;42.18;98166.91;5060803;28;20044;-65
2023/03/07 07:48:15;;;;;;;8.30;3.60;;;;;;;4.94;41.88;98165.72;5022868;28;20129;-65
2023/03/07 07:50:41;;;;;;;8.13;3.60;;;;;;;4.90;41.36;98161.75;5020857;28;20144;-65
2023/03/07 07:53:07;;;;;;;6.03;3.70;;;;;;;5.26;41.14;98162.38;5054149;28;20086;-66
2023/03/07 07:55:33;;;;;;;7.67;3.70;;;;;;;5.28;40.71;98163.84;5024190;28;20403;-65
2023/03/07 07:57:59;;;;;;;7.30;3.43;;;;;;;5.37;40.51;98173.41;5024118;28;20054;-65
2023/03/07 08:00:26;;;;;;;8.03;4.27;;;;;;;5.18;41.08;98169.25;5057262;28;20060;-65
2023/03/07 08:02:52;;;;;;;10.27;3.70;;;;;;;4.92;41.53;98167.69;5057022;28;20036;-68
2023/03/07 08:05:19;;;;;;;8.17;4.30;;;;;;;5.41;41.31;98166.88;5074124;28;20498;-65
2023/03/07 08:07:45;;;;;;;7.67;4.30;;;;;;;5.62;40.65;98175.13;5060743;28;20387;-65
2023/03/07 08:10:14;;;;;;;7.57;3.90;;;;;;;5.88;40.11;98185.53;5044608;28;20046;-65
2023/03/07 08:12:44;;;;;;;14.20;4.30;;;;;;;6.68;39.90;98162.56;5077963;28;20043;-66
2023/03/07 08:15:10;;;;;;;9.23;4.37;;;;;;;6.52;39.07;98173.13;5044378;28;20506;-65
2023/03/07 08:17:36;;;;;;;11.83;4.07;;;;;;;6.87;38.49;98177.19;5027889;28;20476;-65
2023/03/07 08:20:07;;;;;;;8.00;4.07;;;;;;;7.23;37.53;98172.22;5025359;28;20047;-66
2023/03/07 08:22:34;;;;;;;8.70;3.50;;;;;;;7.51;36.92;98176.03;5064627;28;20138;-66
2023/03/07 08:24:59;;;;;;;10.50;4.83;;;;;;;7.62;36.51;98162.44;5041842;28;20433;-65
2023/03/07 08:27:27;;;;;;;8.90;4.17;;;;;;;8.43;36.08;98168.75;5056833;28;20067;-65
2023/03/07 08:29:53;;;;;;;10.03;4.43;;;;;;;7.84;35.63;98170.34;5054716;28;20113;-65
2023/03/07 08:32:19;;;;;;;9.25;4.03;;;;;;;10.33;33.16;98161.25;5040329;28;20052;-66
2023/03/07 08:34:45;;;;;;;8.43;4.35;;;;;;;11.58;31.28;98148.44;5024421;28;20445;-67
2023/03/07 08:37:11;;;;;;;10.75;3.92;;;;;;;13.08;28.91;98157.31;5007718;28;20064;-65
2023/03/07 08:39:37;;;;;;;8.32;4.43;;;;;;;14.96;26.74;98156.28;5040794;28;20083;-65
2023/03/07 08:42:03;;;;;;;6.75;3.95;;;;;;;16.26;24.53;98153.78;5023926;28;20040;-65
2023/03/07 08:44:29;;;;;;;8.75;4.30;;;;;;;17.20;24.21;98141.00;5040582;28;20044;-65
2023/03/07 08:46:54;;;;;;;9.70;4.50;;;;;;;18.26;23.12;98141.19;5040263;28;20044;-66
2023/03/07 08:49:20;;;;;;;6.60;3.80;;;;;;;19.18;21.20;98145.88;5024325;28;20123;-65
2023/03/07 08:51:47;;;;;;;8.70;4.40;;;;;;;19.39;21.47;98125.47;5023720;28;20048;-65
2023/03/07 08:54:13;;;;;;;8.23;4.15;;;;;;;19.99;19.90;98153.06;5040579;28;20237;-65
2023/03/07 08:56:38;;;;;;;10.52;4.70;;;;;;;19.39;19.97;98147.78;5023747;28;20048;-66
2023/03/07 08:59:07;;;;;;;16.98;5.47;;;;;;;19.10;20.19;98153.56;5039928;28;20511;-65
2023/03/07 09:01:33;;;;;;;8.32;4.60;;;;;;;19.20;19.48;98135.69;5056864;28;20610;-67
2023/03/07 09:03:59;;;;;;;6.63;4.22;;;;;;;19.53;18.47;98148.22;5039978;28;20203;-65
2023/03/07 09:06:24;;;;;;;9.50;4.18;;;;;;;19.55;18.57;98173.88;5023513;28;20442;-67
2023/03/07 09:08:50;;;;;;;7.20;3.85;;;;;;;19.28;18.90;98129.09;5007726;28;20460;-65
2023/03/07 09:11:17;;;;;;;7.15;4.68;;;;;;;20.31;18.52;98142.38;5023531;28;20036;-66
2023/03/07 09:13:43;;;;;;;8.48;4.00;;;;;;;20.22;18.00;98135.81;5039716;28;20040;-66
2023/03/07 09:16:09;;;;;;;8.00;4.05;;;;;;;19.83;18.05;98138.63;5023363;28;20078;-65
2023/03/07 09:18:35;;;;;;;11.55;4.53;;;;;;;19.65;18.22;98152.41;5038159;28;20538;-66
2023/03/07 09:21:02;;;;;;;9.20;4.22;;;;;;;20.28;17.61;98153.66;5023394;28;20041;-67
2023/03/07 09:23:28;;;;;;;8.10;4.30;;;;;;;19.26;17.56;98139.25;5022401;28;20044;-65
2023/03/07 09:25:54;;;;;;;9.02;4.60;;;;;;;19.10;17.99;98158.94;5039734;28;20388;-65
2023/03/07 09:28:19;;;;;;;6.72;3.97;;;;;;;19.01;17.97;98125.44;5007350;28;20040;-65
2023/03/07 09:30:45;;;;;;;6.55;3.95;;;;;;;18.69;18.42;98136.03;5006786;28;20139;-66
2023/03/07 09:33:11;;;;;;;9.65;4.28;;;;;;;19.15;17.89;98156.31;5056183;28;20051;-65
2023/03/07 09:35:38;;;;;;;6.85;4.18;;;;;;;19.14;18.00;98142.06;5039899;28;20049;-66
2023/03/07 09:38:04;;;;;;;6.60;4.22;;;;;;;19.26;17.78;98142.75;5023160;28;20045;-65
2023/03/07 09:40:29;;;;;;;7.93;4.07;;;;;;;18.33;18.17;98129.22;5030410;28;20449;-67
2023/03/07 09:43:17;;;;;;;6.00;4.05;;;;;;;18.49;18.30;98133.00;5059018;28;20453;-69
2023/03/07 09:46:28;;;;;;;7.70;4.13;;;;;;;17.97;18.58;98159.25;5075805;28;20052;-65
2023/03/07 09:49:16;;;;;;;5.30;3.72;;;;;;;17.40;19.23;98135.25;5040323;28;20052;-65
2023/03/07 09:51:43;;;;;;;7.25;4.25;;;;;;;17.50;18.84;98120.19;5038878;28;20197;-66
2023/03/07 09:54:21;;;;;;;7.82;4.25;;;;;;;17.77;18.90;98125.81;5075515;28;20432;-66
2023/03/07 09:56:56;;;;;;;7.65;4.05;;;;;;;18.34;18.43;98124.69;5058745;28;20459;-68
2023/03/07 09:59:42;;;;;;;6.53;3.97;;;;;;;18.55;18.17;98117.75;5038858;28;20067;-66
2023/03/07 10:02:30;;;;;;;8.38;3.70;;;;;;;18.64;17.95;98098.28;5038994;28;20062;-66
2023/03/07 10:05:05;;;;;;;8.85;4.00;;;;;;;19.40;17.26;98130.59;5072499;28;20048;-71
2023/03/07 10:07:32;;;;;;;7.20;4.20;;;;;;;19.47;17.34;98125.00;5055073;28;20122;-66
2023/03/07 10:10:05;;;;;;;7.30;3.60;;;;;;;20.74;16.44;98105.19;5070704;28;20469;-68
2023/03/07 10:13:00;;;;;;;6.63;3.80;;;;;;;21.85;15.47;98106.56;5038579;28;20064;-66
2023/03/07 10:15:51;;;;;;;8.05;3.78;;;;;;;21.31;15.82;98108.00;5038807;28;20483;-66
2023/03/07 10:18:43;;;;;;;4.90;3.58;;;;;;;21.29;15.47;98091.25;5038698;28;20416;-66
2023/03/07 10:21:27;;;;;;;7.65;3.58;;;;;;;21.29;15.33;98115.53;5034007;28;20040;-66
2023/03/07 10:24:23;;;;;;;7.65;3.75;;;;;;;20.63;15.55;98086.53;5038601;28;20373;-66
2023/03/07 10:27:03;;;;;;;5.65;3.70;;;;;;;18.90;16.42;98096.75;5055240;28;20182;-66
2023/03/07 10:29:37;;;;;;;10.07;3.90;;;;;;;17.53;17.93;98075.97;5037977;28;20041;-66
2023/03/07 10:32:18;;;;;;;6.28;3.90;;;;;;;16.54;18.80;98074.38;5038192;28;20056;-65
2023/03/07 10:34:44;;;;;;;8.00;3.75;;;;;;;15.85;19.27;98071.59;5075318;28;20047;-65
2023/03/07 10:37:18;;;;;;;10.15;4.05;;;;;;;14.82;20.75;98098.66;5040948;28;20126;-65
2023/03/07 10:39:53;;;;;;;7.40;4.28;;;;;;;14.12;21.44;98091.06;5057816;28;20036;-65
2023/03/07 10:42:21;;;;;;;9.52;4.20;;;;;;;13.18;22.22;98077.72;5055326;28;20048;-66
2023/03/07 10:44:48;;;;;;;8.68;4.35;;;;;;;12.83;22.85;98084.38;5071644;28;20054;-65
2023/03/07 10:47:20;;;;;;;8.10;4.18;;;;;;;13.58;22.21;98107.66;5091719;28;20047;-65
2023/03/07 10:49:49;;;;;;;7.55;4.07;;;;;;;13.34;22.38;98077.22;5073735;28;20483;-66
2023/03/07 10:52:39;;;;;;;6.72;4.00;;;;;;;13.15;22.60;98083.47;5074604;28;20126;-66
2023/03/07 10:55:37;;;;;;;7.15;3.83;;;;;;;13.60;22.38;98057.56;5092167;28;20051;-66
2023/03/07 10:58:35;;;;;;;6.97;3.50;;;;;;;12.80;22.74;98074.13;5024603;28;20282;-66
2023/03/07 11:01:07;;;;;;;9.48;3.70;;;;;;;12.57;23.25;98070.31;5014303;28;20476;-67
2023/03/07 11:03:58;;;;;;;8.10;3.30;;;;;;;12.10;23.78;98042.09;5073401;28;20260;-66
2023/03/07 11:06:39;;;;;;;5.55;3.50;;;;;;;11.92;23.79;98047.25;5041609;28;20060;-66
2023/03/07 11:09:15;;;;;;;5.55;3.30;;;;;;;12.58;23.54;98055.94;5074444;28;20062;-67
2023/03/07 11:11:51;;;;;;;5.18;3.17;;;;;;;12.71;22.87;98059.41;5040983;28;20163;-67
2023/03/07 11:14:16;;;;;;;8.45;3.55;;;;;;;11.98;23.34;98037.63;5036747;28;20071;-67
2023/03/07 11:17:00;;;;;;;5.25;2.63;;;;;;;11.87;23.65;98028.41;5057418;28;20040;-62
2023/03/07 11:19:39;;;;;;;6.68;3.63;;;;;;;12.63;23.38;98033.00;5074442;28;20043;-63
2023/03/07 11:22:22;;;;;;;4.80;3.30;;;;;;;12.67;23.20;98026.22;5040458;28;20487;-63
2023/03/07 11:25:00;;;;;;;7.15;3.40;;;;;;;12.32;22.86;98034.72;5056924;28;20094;-64
2023/03/07 11:27:50;;;;;;;7.68;3.05;;;;;;;11.89;22.91;98039.69;5055711;28;20052;-62
2023/03/07 11:30:23;;;;;;;5.05;2.80;;;;;;;11.20;23.72;98028.53;5074436;28;20048;-66
2023/03/07 11:32:52;;;;;;;3.28;2.63;;;;;;;10.50;24.15;98025.38;5052540;28;20501;-65
2023/03/07 11:35:33;;;;;;;7.05;3.00;;;;;;;10.71;24.40;98008.53;5073942;28;20036;-65
2023/03/07 11:38:11;;;;;;;3.45;2.53;;;;;;;10.43;24.40;98018.41;5073843;28;20472;-66
2023/03/07 11:41:04;;;;;;;4.88;2.90;;;;;;;10.48;24.84;98021.28;5056427;28;20431;-66
2023/03/07 11:43:55;;;;;;;8.05;3.38;;;;;;;9.13;26.17;98016.34;5024052;28;20040;-65
2023/03/07 11:46:42;;;;;;;6.10;3.28;;;;;;;9.64;26.25;98020.50;5022140;28;20227;-66
2023/03/07 11:49:37;;;;;;;8.90;3.45;;;;;;;9.79;25.65;98026.53;5039804;28;20075;-66
2023/03/07 11:52:30;;;;;;;7.75;3.80;;;;;;;9.53;25.90;98030.81;5056001;28;20055;-65